ETMN

Nordholz Naval Airbase Airport

Cuxhaven, Germany
METAR ETMN 201620Z 28004KT 9999 FEW018 BKN300 12/09 Q1028 BLU+
Observed Flight Rules
Oct-20 @ 16:20 UTC (an hour ago) Visual Flight Rules
Wind Visibility Clouds
280° at 4 knots 10,000+ meters
  • Few at 1,800' AGL
  • Broken at 30,000' AGL
Temperatures Readings
Current 12°C / 54°F
Dewpoint 9°C / 48°F
Humidity 82%
Altimeter 30.35" Hg
Pressure 1028 hPa
Elevation 31
METAR ETMN 201620Z 28004KT 9999 FEW018 BKN300 12/09 Q1028 BLU+
Observed Flight Rules
Oct-20 @ 16:20 UTC
(an hour ago)
VFR
Wind Visibility
280° at 4 knots 10,000+ meters
Clouds
  • Few at 1,800' AGL
  • Broken at 30,000' AGL
Temperature Dewpoint
12°C / 54°F 9°C / 48°F
Humidity Altimeter Pressure
82% 30.35" Hg 1028 hPa